sensor_id;sensor_type;location;lat;lon;timestamp;P1;durP1;ratioP1;P2;durP2;ratioP2
74660;SDS011;63191;39.566;2.654;2023-05-16T00:01:27;7.10;;;2.80;;
74660;SDS011;63191;39.566;2.654;2023-05-16T00:03:55;7.60;;;2.70;;
74660;SDS011;63191;39.566;2.654;2023-05-16T00:06:21;7.70;;;2.70;;
74660;SDS011;63191;39.566;2.654;2023-05-16T00:08:48;7.60;;;3.40;;
74660;SDS011;63191;39.566;2.654;2023-05-16T00:11:16;9.70;;;3.70;;
74660;SDS011;63191;39.566;2.654;2023-05-16T00:13:42;6.70;;;3.00;;
74660;SDS011;63191;39.566;2.654;2023-05-16T00:16:08;7.60;;;3.20;;
74660;SDS011;63191;39.566;2.654;2023-05-16T00:18:35;6.80;;;3.20;;
74660;SDS011;63191;39.566;2.654;2023-05-16T00:21:05;6.10;;;2.90;;
74660;SDS011;63191;39.566;2.654;2023-05-16T00:23:31;8.10;;;3.30;;
74660;SDS011;63191;39.566;2.654;2023-05-16T00:25:57;7.40;;;3.90;;
74660;SDS011;63191;39.566;2.654;2023-05-16T00:28:23;7.10;;;3.90;;
74660;SDS011;63191;39.566;2.654;2023-05-16T00:31:04;7.70;;;3.70;;
74660;SDS011;63191;39.566;2.654;2023-05-16T00:33:30;6.70;;;3.30;;
74660;SDS011;63191;39.566;2.654;2023-05-16T00:36:12;5.70;;;3.00;;
74660;SDS011;63191;39.566;2.654;2023-05-16T00:38:39;6.50;;;2.60;;
74660;SDS011;63191;39.566;2.654;2023-05-16T00:41:05;6.00;;;2.50;;
74660;SDS011;63191;39.566;2.654;2023-05-16T00:43:31;6.20;;;2.60;;
74660;SDS011;63191;39.566;2.654;2023-05-16T00:45:57;7.00;;;2.60;;
74660;SDS011;63191;39.566;2.654;2023-05-16T00:48:23;7.10;;;2.80;;
74660;SDS011;63191;39.566;2.654;2023-05-16T00:50:49;5.60;;;2.40;;
74660;SDS011;63191;39.566;2.654;2023-05-16T00:53:17;7.20;;;2.20;;
74660;SDS011;63191;39.566;2.654;2023-05-16T00:55:44;5.40;;;2.10;;
74660;SDS011;63191;39.566;2.654;2023-05-16T00:58:11;6.90;;;2.50;;
74660;SDS011;63191;39.566;2.654;2023-05-16T01:00:37;6.40;;;2.40;;
74660;SDS011;63191;39.566;2.654;2023-05-16T01:03:04;5.60;;;2.60;;
74660;SDS011;63191;39.566;2.654;2023-05-16T01:05:30;5.80;;;2.70;;
74660;SDS011;63191;39.566;2.654;2023-05-16T01:07:56;8.10;;;2.80;;
74660;SDS011;63191;39.566;2.654;2023-05-16T01:10:22;7.20;;;3.00;;
74660;SDS011;63191;39.566;2.654;2023-05-16T01:13:47;4.70;;;1.90;;
74660;SDS011;63191;39.566;2.654;2023-05-16T01:16:41;6.30;;;2.80;;
74660;SDS011;63191;39.566;2.654;2023-05-16T01:28:20;7.30;;;2.70;;
74660;SDS011;63191;39.566;2.654;2023-05-16T01:30:46;5.50;;;2.50;;
74660;SDS011;63191;39.566;2.654;2023-05-16T01:33:12;5.70;;;2.40;;
74660;SDS011;63191;39.566;2.654;2023-05-16T01:36:20;8.20;;;2.80;;
74660;SDS011;63191;39.566;2.654;2023-05-16T01:39:10;6.30;;;2.60;;
74660;SDS011;63191;39.566;2.654;2023-05-16T01:42:09;8.00;;;3.00;;
74660;SDS011;63191;39.566;2.654;2023-05-16T01:50:09;8.50;;;2.70;;
74660;SDS011;63191;39.566;2.654;2023-05-16T01:52:55;7.40;;;2.30;;
74660;SDS011;63191;39.566;2.654;2023-05-16T01:55:29;5.90;;;2.20;;
74660;SDS011;63191;39.566;2.654;2023-05-16T01:58:03;7.70;;;2.80;;
74660;SDS011;63191;39.566;2.654;2023-05-16T02:00:30;8.80;;;2.90;;
74660;SDS011;63191;39.566;2.654;2023-05-16T02:02:56;4.70;;;2.20;;
74660;SDS011;63191;39.566;2.654;2023-05-16T02:05:21;6.60;;;3.00;;
74660;SDS011;63191;39.566;2.654;2023-05-16T02:07:47;8.20;;;2.90;;
74660;SDS011;63191;39.566;2.654;2023-05-16T02:10:13;8.10;;;2.90;;
74660;SDS011;63191;39.566;2.654;2023-05-16T02:12:39;6.70;;;2.90;;
74660;SDS011;63191;39.566;2.654;2023-05-16T02:15:05;9.50;;;2.90;;
74660;SDS011;63191;39.566;2.654;2023-05-16T02:17:32;7.00;;;2.80;;
74660;SDS011;63191;39.566;2.654;2023-05-16T02:19:57;5.40;;;2.40;;
74660;SDS011;63191;39.566;2.654;2023-05-16T02:22:23;6.80;;;2.80;;
74660;SDS011;63191;39.566;2.654;2023-05-16T02:24:49;7.00;;;2.90;;
74660;SDS011;63191;39.566;2.654;2023-05-16T02:27:16;7.80;;;2.60;;
74660;SDS011;63191;39.566;2.654;2023-05-16T02:29:43;7.80;;;2.60;;
74660;SDS011;63191;39.566;2.654;2023-05-16T02:32:11;7.90;;;2.80;;
74660;SDS011;63191;39.566;2.654;2023-05-16T02:34:37;6.40;;;3.00;;
74660;SDS011;63191;39.566;2.654;2023-05-16T02:37:03;8.10;;;2.40;;
74660;SDS011;63191;39.566;2.654;2023-05-16T02:39:29;6.10;;;2.40;;
74660;SDS011;63191;39.566;2.654;2023-05-16T02:41:56;7.70;;;2.90;;
74660;SDS011;63191;39.566;2.654;2023-05-16T02:44:22;6.50;;;2.60;;
74660;SDS011;63191;39.566;2.654;2023-05-16T02:46:48;6.90;;;2.20;;
74660;SDS011;63191;39.566;2.654;2023-05-16T02:49:13;8.70;;;2.20;;
74660;SDS011;63191;39.566;2.654;2023-05-16T02:51:39;9.50;;;2.10;;
74660;SDS011;63191;39.566;2.654;2023-05-16T02:54:06;6.50;;;1.60;;
74660;SDS011;63191;39.566;2.654;2023-05-16T02:56:34;6.90;;;2.30;;
74660;SDS011;63191;39.566;2.654;2023-05-16T02:59:00;7.00;;;1.90;;
74660;SDS011;63191;39.566;2.654;2023-05-16T03:01:26;6.80;;;1.90;;
74660;SDS011;63191;39.566;2.654;2023-05-16T03:03:51;6.80;;;1.60;;
74660;SDS011;63191;39.566;2.654;2023-05-16T03:09:40;5.40;;;1.30;;
74660;SDS011;63191;39.566;2.654;2023-05-16T03:12:06;7.50;;;1.70;;
74660;SDS011;63191;39.566;2.654;2023-05-16T03:14:32;6.40;;;1.30;;
74660;SDS011;63191;39.566;2.654;2023-05-16T03:17:00;7.10;;;1.40;;
74660;SDS011;63191;39.566;2.654;2023-05-16T03:19:25;7.50;;;1.20;;
74660;SDS011;63191;39.566;2.654;2023-05-16T03:21:53;7.00;;;1.10;;
74660;SDS011;63191;39.566;2.654;2023-05-16T03:24:25;7.70;;;1.20;;
74660;SDS011;63191;39.566;2.654;2023-05-16T03:26:57;6.50;;;1.10;;
74660;SDS011;63191;39.566;2.654;2023-05-16T03:29:24;6.60;;;1.00;;
74660;SDS011;63191;39.566;2.654;2023-05-16T03:31:51;6.00;;;1.10;;
74660;SDS011;63191;39.566;2.654;2023-05-16T03:34:18;6.00;;;1.40;;
74660;SDS011;63191;39.566;2.654;2023-05-16T03:36:44;6.30;;;1.10;;
74660;SDS011;63191;39.566;2.654;2023-05-16T03:41:34;6.60;;;1.30;;
74660;SDS011;63191;39.566;2.654;2023-05-16T03:44:00;11.10;;;1.00;;
74660;SDS011;63191;39.566;2.654;2023-05-16T03:46:27;7.10;;;1.00;;
74660;SDS011;63191;39.566;2.654;2023-05-16T03:48:53;6.10;;;1.10;;
74660;SDS011;63191;39.566;2.654;2023-05-16T03:51:18;6.50;;;0.90;;
74660;SDS011;63191;39.566;2.654;2023-05-16T03:53:44;6.90;;;1.20;;
74660;SDS011;63191;39.566;2.654;2023-05-16T03:56:10;5.40;;;0.90;;
74660;SDS011;63191;39.566;2.654;2023-05-16T03:58:35;9.60;;;0.90;;
74660;SDS011;63191;39.566;2.654;2023-05-16T04:01:01;5.50;;;1.00;;
74660;SDS011;63191;39.566;2.654;2023-05-16T04:03:28;7.20;;;1.10;;
74660;SDS011;63191;39.566;2.654;2023-05-16T04:05:54;7.00;;;0.90;;
74660;SDS011;63191;39.566;2.654;2023-05-16T04:08:20;6.40;;;1.00;;
74660;SDS011;63191;39.566;2.654;2023-05-16T04:10:46;8.10;;;1.40;;
74660;SDS011;63191;39.566;2.654;2023-05-16T04:13:13;6.50;;;1.30;;
74660;SDS011;63191;39.566;2.654;2023-05-16T04:15:41;7.90;;;1.10;;
74660;SDS011;63191;39.566;2.654;2023-05-16T04:18:10;5.40;;;0.80;;
74660;SDS011;63191;39.566;2.654;2023-05-16T04:20:36;7.40;;;1.20;;
74660;SDS011;63191;39.566;2.654;2023-05-16T04:23:02;8.80;;;1.10;;
74660;SDS011;63191;39.566;2.654;2023-05-16T04:25:28;6.60;;;1.00;;
74660;SDS011;63191;39.566;2.654;2023-05-16T04:28:03;6.60;;;1.00;;
74660;SDS011;63191;39.566;2.654;2023-05-16T04:30:42;7.40;;;1.20;;
74660;SDS011;63191;39.566;2.654;2023-05-16T04:33:07;6.30;;;1.00;;
74660;SDS011;63191;39.566;2.654;2023-05-16T04:35:33;7.00;;;1.00;;
74660;SDS011;63191;39.566;2.654;2023-05-16T04:37:59;8.80;;;1.30;;
74660;SDS011;63191;39.566;2.654;2023-05-16T04:40:28;12.40;;;1.50;;
74660;SDS011;63191;39.566;2.654;2023-05-16T04:43:06;9.70;;;1.50;;
74660;SDS011;63191;39.566;2.654;2023-05-16T04:45:33;9.90;;;1.10;;
74660;SDS011;63191;39.566;2.654;2023-05-16T04:48:00;7.00;;;1.00;;
74660;SDS011;63191;39.566;2.654;2023-05-16T04:50:27;7.90;;;1.20;;
74660;SDS011;63191;39.566;2.654;2023-05-16T04:52:53;6.40;;;1.20;;
74660;SDS011;63191;39.566;2.654;2023-05-16T04:55:22;8.20;;;1.10;;
74660;SDS011;63191;39.566;2.654;2023-05-16T04:57:48;8.00;;;1.20;;
74660;SDS011;63191;39.566;2.654;2023-05-16T05:00:14;12.20;;;1.30;;
74660;SDS011;63191;39.566;2.654;2023-05-16T05:02:42;10.60;;;1.60;;
74660;SDS011;63191;39.566;2.654;2023-05-16T05:05:08;8.60;;;1.20;;
74660;SDS011;63191;39.566;2.654;2023-05-16T05:07:34;9.20;;;1.20;;
74660;SDS011;63191;39.566;2.654;2023-05-16T05:10:00;6.70;;;1.10;;
74660;SDS011;63191;39.566;2.654;2023-05-16T05:12:26;12.50;;;1.50;;
74660;SDS011;63191;39.566;2.654;2023-05-16T05:14:53;14.20;;;1.50;;
74660;SDS011;63191;39.566;2.654;2023-05-16T05:17:40;8.20;;;1.30;;
74660;SDS011;63191;39.566;2.654;2023-05-16T05:20:06;8.00;;;1.10;;
74660;SDS011;63191;39.566;2.654;2023-05-16T05:22:45;8.40;;;1.00;;
74660;SDS011;63191;39.566;2.654;2023-05-16T05:25:11;6.40;;;0.90;;
74660;SDS011;63191;39.566;2.654;2023-05-16T05:27:37;6.90;;;1.30;;
74660;SDS011;63191;39.566;2.654;2023-05-16T05:32:28;8.00;;;1.30;;
74660;SDS011;63191;39.566;2.654;2023-05-16T05:34:54;9.00;;;1.30;;
74660;SDS011;63191;39.566;2.654;2023-05-16T05:37:20;10.20;;;1.30;;
74660;SDS011;63191;39.566;2.654;2023-05-16T05:39:46;13.30;;;1.60;;
74660;SDS011;63191;39.566;2.654;2023-05-16T05:42:11;11.60;;;1.60;;
74660;SDS011;63191;39.566;2.654;2023-05-16T05:44:37;5.80;;;1.20;;
74660;SDS011;63191;39.566;2.654;2023-05-16T05:47:05;6.90;;;1.00;;
74660;SDS011;63191;39.566;2.654;2023-05-16T05:49:31;10.40;;;1.50;;
74660;SDS011;63191;39.566;2.654;2023-05-16T05:51:58;10.50;;;1.30;;
74660;SDS011;63191;39.566;2.654;2023-05-16T05:54:24;8.30;;;1.60;;
74660;SDS011;63191;39.566;2.654;2023-05-16T05:56:56;9.00;;;1.80;;
74660;SDS011;63191;39.566;2.654;2023-05-16T05:59:26;10.60;;;1.70;;
74660;SDS011;63191;39.566;2.654;2023-05-16T06:01:54;12.20;;;1.60;;
74660;SDS011;63191;39.566;2.654;2023-05-16T06:04:20;10.90;;;1.40;;
74660;SDS011;63191;39.566;2.654;2023-05-16T06:06:46;7.10;;;1.40;;
74660;SDS011;63191;39.566;2.654;2023-05-16T06:09:23;8.80;;;1.50;;
74660;SDS011;63191;39.566;2.654;2023-05-16T06:11:49;10.90;;;1.70;;
74660;SDS011;63191;39.566;2.654;2023-05-16T06:14:27;13.20;;;1.60;;
74660;SDS011;63191;39.566;2.654;2023-05-16T06:17:02;10.80;;;1.60;;
74660;SDS011;63191;39.566;2.654;2023-05-16T06:19:31;10.30;;;1.80;;
74660;SDS011;63191;39.566;2.654;2023-05-16T06:21:57;10.60;;;1.70;;
74660;SDS011;63191;39.566;2.654;2023-05-16T06:28:04;12.50;;;2.80;;
74660;SDS011;63191;39.566;2.654;2023-05-16T06:30:30;12.60;;;3.60;;
74660;SDS011;63191;39.566;2.654;2023-05-16T06:32:55;11.60;;;2.30;;
74660;SDS011;63191;39.566;2.654;2023-05-16T06:39:04;10.40;;;2.70;;
74660;SDS011;63191;39.566;2.654;2023-05-16T06:47:00;9.50;;;1.70;;
74660;SDS011;63191;39.566;2.654;2023-05-16T06:49:34;13.50;;;3.30;;
74660;SDS011;63191;39.566;2.654;2023-05-16T06:52:04;9.00;;;2.10;;
74660;SDS011;63191;39.566;2.654;2023-05-16T06:54:29;9.80;;;1.90;;
74660;SDS011;63191;39.566;2.654;2023-05-16T06:56:56;9.00;;;1.90;;
74660;SDS011;63191;39.566;2.654;2023-05-16T06:59:22;11.10;;;1.90;;
74660;SDS011;63191;39.566;2.654;2023-05-16T07:01:48;6.20;;;1.60;;
74660;SDS011;63191;39.566;2.654;2023-05-16T07:07:02;9.80;;;1.70;;
74660;SDS011;63191;39.566;2.654;2023-05-16T07:09:32;6.10;;;1.50;;
74660;SDS011;63191;39.566;2.654;2023-05-16T07:14:30;7.10;;;1.50;;
74660;SDS011;63191;39.566;2.654;2023-05-16T07:16:57;7.80;;;1.80;;
74660;SDS011;63191;39.566;2.654;2023-05-16T07:19:32;9.40;;;1.60;;
74660;SDS011;63191;39.566;2.654;2023-05-16T07:21:58;7.20;;;1.10;;
74660;SDS011;63191;39.566;2.654;2023-05-16T07:24:24;6.90;;;1.60;;
74660;SDS011;63191;39.566;2.654;2023-05-16T07:26:49;12.90;;;2.00;;
74660;SDS011;63191;39.566;2.654;2023-05-16T07:32:46;8.40;;;1.50;;
74660;SDS011;63191;39.566;2.654;2023-05-16T07:35:28;5.60;;;1.40;;
74660;SDS011;63191;39.566;2.654;2023-05-16T07:37:54;8.50;;;1.40;;
74660;SDS011;63191;39.566;2.654;2023-05-16T07:40:21;9.00;;;1.80;;
74660;SDS011;63191;39.566;2.654;2023-05-16T07:45:15;8.50;;;1.60;;
74660;SDS011;63191;39.566;2.654;2023-05-16T07:50:20;9.30;;;1.90;;
74660;SDS011;63191;39.566;2.654;2023-05-16T07:52:46;7.80;;;1.90;;
74660;SDS011;63191;39.566;2.654;2023-05-16T07:55:12;7.00;;;1.90;;
74660;SDS011;63191;39.566;2.654;2023-05-16T07:57:37;7.00;;;1.70;;
74660;SDS011;63191;39.566;2.654;2023-05-16T08:00:04;7.60;;;1.80;;
74660;SDS011;63191;39.566;2.654;2023-05-16T08:02:30;8.60;;;1.50;;
74660;SDS011;63191;39.566;2.654;2023-05-16T08:05:03;5.80;;;1.70;;
74660;SDS011;63191;39.566;2.654;2023-05-16T08:07:56;7.50;;;1.80;;
74660;SDS011;63191;39.566;2.654;2023-05-16T08:11:31;9.20;;;2.00;;
74660;SDS011;63191;39.566;2.654;2023-05-16T08:15:19;7.00;;;1.80;;
74660;SDS011;63191;39.566;2.654;2023-05-16T08:18:32;8.80;;;1.90;;
74660;SDS011;63191;39.566;2.654;2023-05-16T08:20:57;8.30;;;1.90;;
74660;SDS011;63191;39.566;2.654;2023-05-16T08:23:23;5.90;;;1.50;;
74660;SDS011;63191;39.566;2.654;2023-05-16T08:25:49;6.40;;;1.80;;
74660;SDS011;63191;39.566;2.654;2023-05-16T08:28:15;7.10;;;1.90;;
74660;SDS011;63191;39.566;2.654;2023-05-16T08:30:41;4.00;;;1.50;;
74660;SDS011;63191;39.566;2.654;2023-05-16T08:33:49;6.40;;;1.70;;
74660;SDS011;63191;39.566;2.654;2023-05-16T08:36:59;7.10;;;1.70;;
74660;SDS011;63191;39.566;2.654;2023-05-16T08:39:24;5.00;;;1.70;;
74660;SDS011;63191;39.566;2.654;2023-05-16T08:41:50;7.60;;;1.50;;
74660;SDS011;63191;39.566;2.654;2023-05-16T08:44:16;5.80;;;1.70;;
74660;SDS011;63191;39.566;2.654;2023-05-16T08:46:53;9.50;;;2.40;;
74660;SDS011;63191;39.566;2.654;2023-05-16T08:49:19;7.70;;;2.00;;
74660;SDS011;63191;39.566;2.654;2023-05-16T08:51:46;6.70;;;1.80;;
74660;SDS011;63191;39.566;2.654;2023-05-16T08:54:14;5.80;;;1.80;;
74660;SDS011;63191;39.566;2.654;2023-05-16T08:56:41;7.70;;;1.50;;
74660;SDS011;63191;39.566;2.654;2023-05-16T08:59:09;5.50;;;1.70;;
74660;SDS011;63191;39.566;2.654;2023-05-16T09:01:36;6.30;;;1.70;;
74660;SDS011;63191;39.566;2.654;2023-05-16T09:06:30;6.10;;;1.80;;
74660;SDS011;63191;39.566;2.654;2023-05-16T09:08:58;6.70;;;1.90;;
74660;SDS011;63191;39.566;2.654;2023-05-16T09:12:47;5.60;;;1.70;;
74660;SDS011;63191;39.566;2.654;2023-05-16T09:16:39;4.70;;;1.80;;
74660;SDS011;63191;39.566;2.654;2023-05-16T09:19:49;6.20;;;1.70;;
74660;SDS011;63191;39.566;2.654;2023-05-16T09:22:58;6.90;;;1.90;;
74660;SDS011;63191;39.566;2.654;2023-05-16T09:26:56;6.20;;;2.30;;
74660;SDS011;63191;39.566;2.654;2023-05-16T09:30:53;7.50;;;2.30;;
74660;SDS011;63191;39.566;2.654;2023-05-16T09:34:36;6.10;;;1.70;;
74660;SDS011;63191;39.566;2.654;2023-05-16T09:38:24;4.80;;;1.80;;
74660;SDS011;63191;39.566;2.654;2023-05-16T09:41:34;5.30;;;1.80;;
74660;SDS011;63191;39.566;2.654;2023-05-16T09:44:05;14.00;;;2.50;;
74660;SDS011;63191;39.566;2.654;2023-05-16T09:47:50;6.70;;;1.90;;
74660;SDS011;63191;39.566;2.654;2023-05-16T09:50:36;5.50;;;1.50;;
74660;SDS011;63191;39.566;2.654;2023-05-16T09:53:27;6.60;;;2.20;;
74660;SDS011;63191;39.566;2.654;2023-05-16T09:56:08;8.80;;;1.90;;
74660;SDS011;63191;39.566;2.654;2023-05-16T09:58:38;8.00;;;2.10;;
74660;SDS011;63191;39.566;2.654;2023-05-16T10:01:06;7.70;;;2.10;;
74660;SDS011;63191;39.566;2.654;2023-05-16T10:03:38;9.00;;;1.80;;
74660;SDS011;63191;39.566;2.654;2023-05-16T10:06:07;6.10;;;1.80;;
74660;SDS011;63191;39.566;2.654;2023-05-16T10:08:35;4.60;;;1.60;;
74660;SDS011;63191;39.566;2.654;2023-05-16T10:12:41;7.00;;;2.40;;
74660;SDS011;63191;39.566;2.654;2023-05-16T10:16:41;5.90;;;1.90;;
74660;SDS011;63191;39.566;2.654;2023-05-16T10:20:11;7.60;;;2.00;;
74660;SDS011;63191;39.566;2.654;2023-05-16T10:22:42;8.60;;;2.30;;
74660;SDS011;63191;39.566;2.654;2023-05-16T10:25:24;8.20;;;3.70;;
74660;SDS011;63191;39.566;2.654;2023-05-16T10:30:20;6.60;;;2.20;;
74660;SDS011;63191;39.566;2.654;2023-05-16T10:32:56;6.10;;;2.00;;
74660;SDS011;63191;39.566;2.654;2023-05-16T10:35:23;11.10;;;3.30;;
74660;SDS011;63191;39.566;2.654;2023-05-16T10:40:30;7.50;;;2.20;;
74660;SDS011;63191;39.566;2.654;2023-05-16T10:43:00;10.50;;;2.00;;
74660;SDS011;63191;39.566;2.654;2023-05-16T10:45:28;8.00;;;2.10;;
74660;SDS011;63191;39.566;2.654;2023-05-16T10:47:57;7.10;;;1.90;;
74660;SDS011;63191;39.566;2.654;2023-05-16T10:50:39;7.50;;;2.40;;
74660;SDS011;63191;39.566;2.654;2023-05-16T10:53:21;6.90;;;1.90;;
74660;SDS011;63191;39.566;2.654;2023-05-16T11:01:23;6.50;;;1.90;;
74660;SDS011;63191;39.566;2.654;2023-05-16T11:06:28;6.50;;;1.90;;
74660;SDS011;63191;39.566;2.654;2023-05-16T11:10:15;4.80;;;1.70;;
74660;SDS011;63191;39.566;2.654;2023-05-16T11:14:37;5.60;;;1.70;;
74660;SDS011;63191;39.566;2.654;2023-05-16T11:18:15;5.60;;;1.70;;
74660;SDS011;63191;39.566;2.654;2023-05-16T11:25:10;4.50;;;1.60;;
74660;SDS011;63191;39.566;2.654;2023-05-16T11:27:46;5.30;;;1.50;;
74660;SDS011;63191;39.566;2.654;2023-05-16T11:30:16;4.90;;;1.60;;
74660;SDS011;63191;39.566;2.654;2023-05-16T11:32:45;7.70;;;1.80;;
74660;SDS011;63191;39.566;2.654;2023-05-16T11:35:16;7.10;;;1.50;;
74660;SDS011;63191;39.566;2.654;2023-05-16T11:37:46;4.80;;;1.40;;
74660;SDS011;63191;39.566;2.654;2023-05-16T11:40:16;7.80;;;1.50;;
74660;SDS011;63191;39.566;2.654;2023-05-16T11:42:47;9.40;;;2.10;;
74660;SDS011;63191;39.566;2.654;2023-05-16T11:45:21;8.00;;;1.60;;
74660;SDS011;63191;39.566;2.654;2023-05-16T11:47:50;11.50;;;2.70;;
74660;SDS011;63191;39.566;2.654;2023-05-16T11:50:20;5.70;;;1.70;;
74660;SDS011;63191;39.566;2.654;2023-05-16T11:52:59;6.70;;;1.60;;
74660;SDS011;63191;39.566;2.654;2023-05-16T11:55:27;5.20;;;1.30;;
74660;SDS011;63191;39.566;2.654;2023-05-16T11:57:57;5.70;;;1.30;;
74660;SDS011;63191;39.566;2.654;2023-05-16T12:00:27;5.80;;;1.80;;
74660;SDS011;63191;39.566;2.654;2023-05-16T12:02:58;4.80;;;1.60;;
74660;SDS011;63191;39.566;2.654;2023-05-16T12:05:29;5.40;;;1.60;;
74660;SDS011;63191;39.566;2.654;2023-05-16T12:07:56;5.60;;;1.60;;
74660;SDS011;63191;39.566;2.654;2023-05-16T12:10:26;7.20;;;1.80;;
74660;SDS011;63191;39.566;2.654;2023-05-16T12:12:53;8.50;;;2.00;;
74660;SDS011;63191;39.566;2.654;2023-05-16T12:15:19;5.50;;;1.60;;
74660;SDS011;63191;39.566;2.654;2023-05-16T12:17:46;6.30;;;1.80;;
74660;SDS011;63191;39.566;2.654;2023-05-16T12:20:13;5.40;;;1.40;;
74660;SDS011;63191;39.566;2.654;2023-05-16T12:22:41;6.20;;;1.50;;
74660;SDS011;63191;39.566;2.654;2023-05-16T12:25:20;3.80;;;1.20;;
74660;SDS011;63191;39.566;2.654;2023-05-16T12:27:47;5.50;;;1.40;;
74660;SDS011;63191;39.566;2.654;2023-05-16T12:30:25;3.20;;;1.10;;
74660;SDS011;63191;39.566;2.654;2023-05-16T12:32:57;6.40;;;1.40;;
74660;SDS011;63191;39.566;2.654;2023-05-16T12:35:34;4.60;;;1.20;;
74660;SDS011;63191;39.566;2.654;2023-05-16T12:38:06;5.10;;;1.30;;
74660;SDS011;63191;39.566;2.654;2023-05-16T12:40:49;5.10;;;1.60;;
74660;SDS011;63191;39.566;2.654;2023-05-16T12:43:19;7.80;;;1.50;;
74660;SDS011;63191;39.566;2.654;2023-05-16T12:45:52;4.10;;;1.30;;
74660;SDS011;63191;39.566;2.654;2023-05-16T12:48:19;6.00;;;1.70;;
74660;SDS011;63191;39.566;2.654;2023-05-16T12:50:46;5.00;;;1.30;;
74660;SDS011;63191;39.566;2.654;2023-05-16T12:53:15;5.30;;;1.40;;
74660;SDS011;63191;39.566;2.654;2023-05-16T12:55:45;5.50;;;1.80;;
74660;SDS011;63191;39.566;2.654;2023-05-16T12:58:11;6.40;;;1.90;;
74660;SDS011;63191;39.566;2.654;2023-05-16T13:00:37;5.90;;;1.70;;
74660;SDS011;63191;39.566;2.654;2023-05-16T13:03:13;9.00;;;2.00;;
74660;SDS011;63191;39.566;2.654;2023-05-16T13:05:39;5.70;;;1.30;;
74660;SDS011;63191;39.566;2.654;2023-05-16T13:08:05;6.00;;;1.60;;
74660;SDS011;63191;39.566;2.654;2023-05-16T13:10:31;6.60;;;1.60;;
74660;SDS011;63191;39.566;2.654;2023-05-16T13:12:57;5.30;;;1.40;;
74660;SDS011;63191;39.566;2.654;2023-05-16T13:15:24;6.70;;;1.80;;
74660;SDS011;63191;39.566;2.654;2023-05-16T13:17:50;7.00;;;2.20;;
74660;SDS011;63191;39.566;2.654;2023-05-16T13:20:16;8.00;;;1.80;;
74660;SDS011;63191;39.566;2.654;2023-05-16T13:22:42;9.00;;;2.50;;
74660;SDS011;63191;39.566;2.654;2023-05-16T13:25:09;6.00;;;1.70;;
74660;SDS011;63191;39.566;2.654;2023-05-16T13:27:35;8.10;;;1.80;;
74660;SDS011;63191;39.566;2.654;2023-05-16T13:30:02;7.80;;;1.90;;
74660;SDS011;63191;39.566;2.654;2023-05-16T13:32:31;8.20;;;1.70;;
74660;SDS011;63191;39.566;2.654;2023-05-16T13:35:48;6.60;;;1.90;;
74660;SDS011;63191;39.566;2.654;2023-05-16T13:39:10;7.20;;;2.10;;
74660;SDS011;63191;39.566;2.654;2023-05-16T13:43:08;8.50;;;1.60;;
74660;SDS011;63191;39.566;2.654;2023-05-16T13:46:43;5.60;;;1.50;;
74660;SDS011;63191;39.566;2.654;2023-05-16T13:49:52;5.40;;;1.70;;
74660;SDS011;63191;39.566;2.654;2023-05-16T13:53:02;6.30;;;2.00;;
74660;SDS011;63191;39.566;2.654;2023-05-16T13:56:06;6.80;;;1.80;;
74660;SDS011;63191;39.566;2.654;2023-05-16T13:58:31;6.70;;;1.70;;
74660;SDS011;63191;39.566;2.654;2023-05-16T14:01:00;7.00;;;1.60;;
74660;SDS011;63191;39.566;2.654;2023-05-16T14:03:33;6.80;;;1.70;;
74660;SDS011;63191;39.566;2.654;2023-05-16T14:06:05;5.30;;;1.70;;
74660;SDS011;63191;39.566;2.654;2023-05-16T14:09:03;7.70;;;1.80;;
74660;SDS011;63191;39.566;2.654;2023-05-16T14:12:00;7.00;;;1.80;;
74660;SDS011;63191;39.566;2.654;2023-05-16T14:14:48;6.30;;;1.90;;
74660;SDS011;63191;39.566;2.654;2023-05-16T14:17:15;5.90;;;1.70;;
74660;SDS011;63191;39.566;2.654;2023-05-16T14:19:43;9.00;;;2.00;;
74660;SDS011;63191;39.566;2.654;2023-05-16T14:22:14;6.80;;;1.70;;
74660;SDS011;63191;39.566;2.654;2023-05-16T14:24:59;4.70;;;1.30;;
74660;SDS011;63191;39.566;2.654;2023-05-16T14:28:03;8.90;;;1.80;;
74660;SDS011;63191;39.566;2.654;2023-05-16T14:30:30;7.00;;;1.90;;
74660;SDS011;63191;39.566;2.654;2023-05-16T14:32:55;6.20;;;1.40;;
74660;SDS011;63191;39.566;2.654;2023-05-16T14:35:44;7.00;;;2.00;;
74660;SDS011;63191;39.566;2.654;2023-05-16T14:38:38;7.10;;;1.80;;
74660;SDS011;63191;39.566;2.654;2023-05-16T14:41:15;6.80;;;2.10;;
74660;SDS011;63191;39.566;2.654;2023-05-16T14:43:44;6.40;;;1.80;;
74660;SDS011;63191;39.566;2.654;2023-05-16T14:46:22;5.40;;;1.70;;
74660;SDS011;63191;39.566;2.654;2023-05-16T14:48:58;8.30;;;2.20;;
74660;SDS011;63191;39.566;2.654;2023-05-16T14:51:27;6.80;;;1.70;;
74660;SDS011;63191;39.566;2.654;2023-05-16T14:53:57;7.00;;;1.80;;
74660;SDS011;63191;39.566;2.654;2023-05-16T14:56:27;7.70;;;1.70;;
74660;SDS011;63191;39.566;2.654;2023-05-16T14:58:55;6.80;;;1.60;;
74660;SDS011;63191;39.566;2.654;2023-05-16T15:01:21;8.60;;;1.70;;
74660;SDS011;63191;39.566;2.654;2023-05-16T15:03:48;6.80;;;1.60;;
74660;SDS011;63191;39.566;2.654;2023-05-16T15:06:16;5.80;;;1.40;;
74660;SDS011;63191;39.566;2.654;2023-05-16T15:08:48;5.20;;;1.50;;
74660;SDS011;63191;39.566;2.654;2023-05-16T15:11:14;4.80;;;1.50;;
74660;SDS011;63191;39.566;2.654;2023-05-16T15:13:43;4.70;;;1.20;;
74660;SDS011;63191;39.566;2.654;2023-05-16T15:16:10;4.30;;;1.10;;
74660;SDS011;63191;39.566;2.654;2023-05-16T15:18:48;6.30;;;1.40;;
74660;SDS011;63191;39.566;2.654;2023-05-16T15:38:15;6.10;;;1.30;;
74660;SDS011;63191;39.566;2.654;2023-05-16T15:40:56;7.50;;;1.70;;
74660;SDS011;63191;39.566;2.654;2023-05-16T15:43:22;7.70;;;1.80;;
74660;SDS011;63191;39.566;2.654;2023-05-16T15:46:23;5.50;;;1.60;;
74660;SDS011;63191;39.566;2.654;2023-05-16T15:48:49;5.90;;;1.60;;
74660;SDS011;63191;39.566;2.654;2023-05-16T15:54:54;6.90;;;1.80;;
74660;SDS011;63191;39.566;2.654;2023-05-16T16:28:54;5.40;;;1.30;;
74660;SDS011;63191;39.566;2.654;2023-05-16T16:36:50;6.30;;;1.20;;
74660;SDS011;63191;39.566;2.654;2023-05-16T16:44:55;5.10;;;1.10;;
74660;SDS011;63191;39.566;2.654;2023-05-16T16:47:24;4.40;;;1.10;;
74660;SDS011;63191;39.566;2.654;2023-05-16T16:49:53;3.70;;;0.90;;
74660;SDS011;63191;39.566;2.654;2023-05-16T16:52:20;5.10;;;1.20;;
74660;SDS011;63191;39.566;2.654;2023-05-16T16:54:46;4.00;;;1.10;;
74660;SDS011;63191;39.566;2.654;2023-05-16T16:57:21;3.50;;;1.30;;
74660;SDS011;63191;39.566;2.654;2023-05-16T17:02:57;6.10;;;1.40;;
74660;SDS011;63191;39.566;2.654;2023-05-16T17:05:26;5.10;;;1.30;;
74660;SDS011;63191;39.566;2.654;2023-05-16T17:07:52;4.60;;;1.20;;
74660;SDS011;63191;39.566;2.654;2023-05-16T17:11:02;6.30;;;1.20;;
74660;SDS011;63191;39.566;2.654;2023-05-16T17:15:16;6.80;;;1.10;;
74660;SDS011;63191;39.566;2.654;2023-05-16T17:17:43;3.90;;;1.10;;
74660;SDS011;63191;39.566;2.654;2023-05-16T17:20:15;6.20;;;1.00;;
74660;SDS011;63191;39.566;2.654;2023-05-16T17:23:47;4.50;;;0.70;;
74660;SDS011;63191;39.566;2.654;2023-05-16T17:30:01;3.50;;;0.80;;
74660;SDS011;63191;39.566;2.654;2023-05-16T17:32:28;3.90;;;0.80;;
74660;SDS011;63191;39.566;2.654;2023-05-16T17:34:57;4.90;;;0.90;;
74660;SDS011;63191;39.566;2.654;2023-05-16T17:37:28;5.80;;;0.70;;
74660;SDS011;63191;39.566;2.654;2023-05-16T17:39:54;5.20;;;1.50;;
74660;SDS011;63191;39.566;2.654;2023-05-16T17:42:20;8.00;;;1.50;;
74660;SDS011;63191;39.566;2.654;2023-05-16T17:44:46;5.40;;;1.10;;
74660;SDS011;63191;39.566;2.654;2023-05-16T17:47:45;3.70;;;0.90;;
74660;SDS011;63191;39.566;2.654;2023-05-16T17:54:18;4.10;;;1.10;;
74660;SDS011;63191;39.566;2.654;2023-05-16T17:56:58;4.30;;;0.90;;
74660;SDS011;63191;39.566;2.654;2023-05-16T18:02:28;9.00;;;1.60;;